createdAt,value
2023-05-03T00:01:43.916Z,16.25
2023-05-03T00:04:10.823Z,16.07
2023-05-03T00:06:37.386Z,15.94
2023-05-03T00:09:04.038Z,15.86
2023-05-03T00:11:30.581Z,16.08
2023-05-03T00:13:57.122Z,16.21
2023-05-03T00:16:23.660Z,16.16
2023-05-03T00:18:50.283Z,16.14
2023-05-03T00:21:17.262Z,16.09
2023-05-03T00:23:43.824Z,16.12
2023-05-03T00:26:10.473Z,16.12
2023-05-03T00:28:37.448Z,16.15
2023-05-03T00:31:09.492Z,15.80
2023-05-03T00:33:37.453Z,15.26
2023-05-03T00:36:11.477Z,15.07
2023-05-03T00:38:40.252Z,15.22
2023-05-03T00:41:10.843Z,15.52
2023-05-03T00:43:37.812Z,15.78
2023-05-03T00:46:16.067Z,15.82
2023-05-03T00:48:45.209Z,15.70
2023-05-03T00:51:14.505Z,15.48
2023-05-03T00:53:42.128Z,15.20
2023-05-03T00:56:09.839Z,15.24
2023-05-03T00:58:39.935Z,15.28
2023-05-03T01:01:10.006Z,15.59
2023-05-03T01:03:41.098Z,15.71
2023-05-03T01:06:33.769Z,15.57
2023-05-03T01:09:18.978Z,14.97
2023-05-03T01:12:19.647Z,14.79
2023-05-03T01:15:26.697Z,14.87
2023-05-03T01:17:59.748Z,14.63
2023-05-03T01:20:30.844Z,14.75
2023-05-03T01:23:16.164Z,15.27
2023-05-03T01:25:42.709Z,15.55
2023-05-03T01:28:09.351Z,15.48
2023-05-03T01:30:37.559Z,15.33
2023-05-03T01:33:22.780Z,14.92
2023-05-03T01:35:55.708Z,15.21
2023-05-03T01:38:23.163Z,15.27
2023-05-03T01:40:58.671Z,15.35
2023-05-03T01:43:26.200Z,15.62
2023-05-03T01:45:52.778Z,15.93
2023-05-03T01:48:19.692Z,15.97
2023-05-03T01:50:46.807Z,15.81
2023-05-03T01:53:13.838Z,15.78
2023-05-03T01:55:40.451Z,15.76
2023-05-03T01:58:07.181Z,15.72
2023-05-03T02:00:33.842Z,15.59
2023-05-03T02:03:00.574Z,15.18
2023-05-03T02:05:27.223Z,15.31
2023-05-03T02:07:54.032Z,15.52
2023-05-03T02:10:20.966Z,15.78
2023-05-03T02:12:47.648Z,15.69
2023-05-03T02:15:14.751Z,15.64
2023-05-03T02:17:43.142Z,15.35
2023-05-03T02:20:09.935Z,15.47
2023-05-03T02:22:36.969Z,15.64
2023-05-03T02:25:03.762Z,15.74
2023-05-03T02:27:30.355Z,15.75
2023-05-03T02:29:56.854Z,15.66
2023-05-03T02:32:24.151Z,15.65
2023-05-03T02:34:50.776Z,15.64
2023-05-03T02:37:21.041Z,15.83
2023-05-03T02:39:48.086Z,15.84
2023-05-03T02:42:16.142Z,15.83
2023-05-03T02:44:46.225Z,15.54
2023-05-03T02:47:12.778Z,15.27
2023-05-03T02:49:41.874Z,15.43
2023-05-03T02:52:08.491Z,15.54
2023-05-03T02:54:35.027Z,15.59
2023-05-03T02:57:07.537Z,15.66
2023-05-03T02:59:34.148Z,15.67
2023-05-03T03:02:01.537Z,15.83
2023-05-03T03:04:29.059Z,15.75
2023-05-03T03:06:56.736Z,15.70
2023-05-03T03:09:23.508Z,15.65
2023-05-03T03:11:53.460Z,15.46
2023-05-03T03:14:20.729Z,15.35
2023-05-03T03:16:47.834Z,15.51
2023-05-03T03:19:15.030Z,15.43
2023-05-03T03:21:41.752Z,15.50
2023-05-03T03:24:09.142Z,15.26
2023-05-03T03:26:35.736Z,14.66
2023-05-03T03:29:02.645Z,14.58
2023-05-03T03:31:29.705Z,14.83
2023-05-03T03:33:56.501Z,15.08
2023-05-03T03:36:27.874Z,15.34
2023-05-03T03:38:54.399Z,15.32
2023-05-03T03:41:21.275Z,15.15
2023-05-03T03:43:49.028Z,15.18
2023-05-03T03:46:18.988Z,15.23
2023-05-03T03:48:48.904Z,15.28
2023-05-03T03:51:16.060Z,15.39
2023-05-03T03:53:46.743Z,15.19
2023-05-03T03:56:13.326Z,14.94
2023-05-03T03:58:40.982Z,15.12
2023-05-03T04:01:09.062Z,15.08
2023-05-03T04:03:36.442Z,15.17
2023-05-03T04:06:03.806Z,15.03
2023-05-03T04:08:30.838Z,15.02
2023-05-03T04:10:57.417Z,15.03
2023-05-03T04:13:25.467Z,15.12
2023-05-03T04:15:56.173Z,15.10
2023-05-03T04:18:23.353Z,15.13
2023-05-03T04:20:51.613Z,15.24
2023-05-03T04:23:18.206Z,15.33
2023-05-03T04:25:48.442Z,15.34
2023-05-03T04:28:16.592Z,15.21
2023-05-03T04:30:47.294Z,15.25
2023-05-03T04:33:16.892Z,15.25
2023-05-03T04:35:43.857Z,15.42
2023-05-03T04:38:14.528Z,15.56
2023-05-03T04:40:41.176Z,15.50
2023-05-03T04:43:09.589Z,15.59
2023-05-03T04:45:39.782Z,15.58
2023-05-03T04:48:09.844Z,15.51
2023-05-03T04:50:36.573Z,15.48
2023-05-03T04:53:04.383Z,15.63
2023-05-03T04:55:34.076Z,15.60
2023-05-03T04:58:02.829Z,15.57
2023-05-03T05:00:29.737Z,15.73
2023-05-03T05:03:02.007Z,15.59
2023-05-03T05:05:31.515Z,15.59
2023-05-03T05:07:59.625Z,15.84
2023-05-03T05:10:30.927Z,16.09
2023-05-03T05:12:58.472Z,16.15
2023-05-03T05:15:25.683Z,16.16
2023-05-03T05:17:52.423Z,16.16
2023-05-03T05:20:20.192Z,16.29
2023-05-03T05:22:49.491Z,16.35
2023-05-03T05:25:16.130Z,16.34
2023-05-03T05:27:43.337Z,16.35
2023-05-03T05:30:10.072Z,16.56
2023-05-03T05:32:39.563Z,16.66
2023-05-03T05:35:09.438Z,17.10
2023-05-03T05:37:36.531Z,16.79
2023-05-03T05:40:05.694Z,16.72
2023-05-03T05:42:38.167Z,16.57
2023-05-03T05:45:07.978Z,16.69
2023-05-03T05:47:35.414Z,16.90
2023-05-03T05:50:09.593Z,17.03
2023-05-03T05:52:42.628Z,17.10
2023-05-03T05:55:13.572Z,17.50
2023-05-03T05:57:41.041Z,17.53
2023-05-03T06:00:14.455Z,17.49
2023-05-03T06:02:42.373Z,17.46
2023-05-03T06:05:12.516Z,17.27
2023-05-03T06:07:39.120Z,17.33
2023-05-03T06:10:07.016Z,17.52
2023-05-03T06:12:35.001Z,17.46
2023-05-03T06:15:03.311Z,17.47
2023-05-03T06:17:35.932Z,17.55
2023-05-03T06:20:04.555Z,17.54
2023-05-03T06:22:31.664Z,17.74
2023-05-03T06:24:58.509Z,17.73
2023-05-03T06:27:26.021Z,17.95
2023-05-03T06:29:53.533Z,17.84
2023-05-03T06:32:22.132Z,17.79
2023-05-03T06:34:49.600Z,17.74
2023-05-03T06:37:17.238Z,17.90
2023-05-03T06:39:44.658Z,17.78
2023-05-03T06:42:11.452Z,17.51
2023-05-03T06:44:40.331Z,17.57
2023-05-03T06:47:07.314Z,17.69
2023-05-03T06:49:34.049Z,17.72
2023-05-03T06:52:00.727Z,17.78
2023-05-03T06:54:27.226Z,18.14
2023-05-03T06:56:53.766Z,18.28
2023-05-03T06:59:20.449Z,18.40
2023-05-03T07:01:47.104Z,18.41
2023-05-03T07:04:13.872Z,18.40
2023-05-03T07:06:55.273Z,18.70
2023-05-03T07:09:32.048Z,19.12
2023-05-03T07:12:08.523Z,19.51
2023-05-03T07:14:35.037Z,20.28
2023-05-03T07:17:01.569Z,20.45
2023-05-03T07:19:28.078Z,20.98
2023-05-03T07:21:54.654Z,21.61
2023-05-03T07:24:21.152Z,21.93
2023-05-03T07:26:49.028Z,23.72
2023-05-03T07:29:15.672Z,24.40
2023-05-03T07:31:42.446Z,24.11
2023-05-03T07:34:08.943Z,23.57
2023-05-03T07:36:35.551Z,24.86
2023-05-03T07:39:02.087Z,25.31
2023-05-03T07:41:28.619Z,25.59
2023-05-03T07:43:55.814Z,25.98
2023-05-03T07:46:23.148Z,24.52
2023-05-03T07:48:49.697Z,23.85
2023-05-03T07:51:16.515Z,22.93
2023-05-03T07:53:44.037Z,23.14
2023-05-03T07:56:11.427Z,23.49
2023-05-03T07:58:40.460Z,24.86
2023-05-03T08:01:07.733Z,24.35
2023-05-03T08:03:34.620Z,23.55
2023-05-03T08:06:01.552Z,22.98
2023-05-03T08:08:28.355Z,22.79
2023-05-03T08:10:54.968Z,22.64
2023-05-03T08:13:22.625Z,22.38
2023-05-03T08:15:50.667Z,23.21
2023-05-03T08:18:17.256Z,22.30
2023-05-03T08:20:44.798Z,21.54
2023-05-03T08:23:11.343Z,22.06
2023-05-03T08:25:38.075Z,22.77
2023-05-03T08:28:04.744Z,22.28
2023-05-03T08:30:31.507Z,22.09
2023-05-03T08:32:58.157Z,21.38
2023-05-03T08:35:25.826Z,21.67
2023-05-03T08:37:52.374Z,21.83
2023-05-03T08:40:22.699Z,21.54
2023-05-03T08:42:52.675Z,21.50
2023-05-03T08:45:19.523Z,21.92
2023-05-03T08:47:46.083Z,22.32
2023-05-03T08:50:16.257Z,22.45
2023-05-03T08:52:43.286Z,22.53
2023-05-03T08:55:11.092Z,22.55
2023-05-03T08:57:37.982Z,22.49
2023-05-03T09:00:06.576Z,22.54
2023-05-03T09:02:34.919Z,22.71
2023-05-03T09:05:01.866Z,22.83
2023-05-03T09:07:28.798Z,22.70
2023-05-03T09:09:57.068Z,22.07
2023-05-03T09:12:36.978Z,21.75
2023-05-03T09:15:04.470Z,21.86
2023-05-03T09:17:31.112Z,22.32
2023-05-03T09:19:58.922Z,22.56
2023-05-03T09:22:28.431Z,22.60
2023-05-03T09:24:57.271Z,22.76
2023-05-03T09:27:25.573Z,23.16
2023-05-03T09:29:52.998Z,23.06
2023-05-03T09:32:22.203Z,23.29
2023-05-03T09:34:48.798Z,22.89
2023-05-03T09:37:15.496Z,22.71
2023-05-03T09:39:43.872Z,22.46
2023-05-03T09:42:19.546Z,22.93
2023-05-03T09:44:53.704Z,22.99
2023-05-03T09:47:21.902Z,23.12
2023-05-03T09:49:48.597Z,23.09
2023-05-03T09:52:15.126Z,22.84
2023-05-03T09:54:42.230Z,23.10
2023-05-03T09:57:09.375Z,23.15
2023-05-03T09:59:37.997Z,23.17
2023-05-03T10:02:07.464Z,23.30
2023-05-03T10:04:51.223Z,23.32
2023-05-03T10:07:20.655Z,23.54
2023-05-03T10:09:47.872Z,23.22
2023-05-03T10:12:17.470Z,23.51
2023-05-03T10:14:48.659Z,23.46
2023-05-03T10:17:45.551Z,23.51
2023-05-03T10:20:33.267Z,23.12
2023-05-03T10:23:12.164Z,23.75
2023-05-03T10:25:59.788Z,23.17
2023-05-03T10:28:26.450Z,23.53
2023-05-03T10:30:53.043Z,23.10
2023-05-03T10:33:19.647Z,23.49
2023-05-03T10:35:53.009Z,23.48
2023-05-03T10:38:27.588Z,23.43
2023-05-03T10:40:55.610Z,23.38
2023-05-03T10:43:31.418Z,23.43
2023-05-03T10:46:03.020Z,23.40
2023-05-03T10:48:30.894Z,23.51
2023-05-03T10:51:18.459Z,23.62
2023-05-03T10:53:45.081Z,23.73
2023-05-03T10:56:15.155Z,23.95
2023-05-03T10:58:46.684Z,24.15
2023-05-03T11:01:16.082Z,23.80
2023-05-03T11:03:52.192Z,24.14
2023-05-03T11:06:35.816Z,24.15
2023-05-03T11:09:05.872Z,23.50
2023-05-03T11:11:33.294Z,23.68
2023-05-03T11:13:59.889Z,23.76
2023-05-03T11:16:27.178Z,23.71
2023-05-03T11:18:54.122Z,23.40
2023-05-03T11:21:21.200Z,23.54
2023-05-03T11:23:48.054Z,23.44
2023-05-03T11:26:14.916Z,23.42
2023-05-03T11:28:43.532Z,23.84
2023-05-03T11:31:11.308Z,23.58
2023-05-03T11:33:39.481Z,23.52
2023-05-03T11:36:09.429Z,23.71
2023-05-03T11:38:39.292Z,23.91
2023-05-03T11:41:17.340Z,24.10
2023-05-03T11:43:57.792Z,23.86
2023-05-03T11:46:35.402Z,23.77
2023-05-03T11:49:03.398Z,23.74
2023-05-03T11:51:31.266Z,24.01
2023-05-03T11:54:06.882Z,23.80
2023-05-03T11:56:40.074Z,24.03
2023-05-03T11:59:06.561Z,24.44
2023-05-03T12:01:33.271Z,24.12
2023-05-03T12:04:02.648Z,23.96
2023-05-03T12:06:34.448Z,24.12
2023-05-03T12:09:03.492Z,24.26
2023-05-03T12:11:32.694Z,24.16
2023-05-03T12:14:02.281Z,24.46
2023-05-03T12:16:47.379Z,24.26
2023-05-03T12:19:24.505Z,24.31
2023-05-03T12:22:04.721Z,24.49
2023-05-03T12:24:39.405Z,24.54
2023-05-03T12:27:08.438Z,24.24
2023-05-03T12:29:35.721Z,24.56
2023-05-03T12:32:03.812Z,24.62
2023-05-03T12:34:35.414Z,24.26
2023-05-03T12:37:05.758Z,24.37
2023-05-03T12:39:39.218Z,24.06
2023-05-03T12:42:08.858Z,24.41
2023-05-03T12:44:42.651Z,24.66
2023-05-03T12:47:10.533Z,24.81
2023-05-03T12:49:38.998Z,24.68
2023-05-03T12:52:35.252Z,24.69
2023-05-03T12:54:55.751Z,24.75
2023-05-03T12:57:24.400Z,24.37
2023-05-03T12:59:55.115Z,24.43
2023-05-03T13:05:00.435Z,24.89
2023-05-03T13:07:31.246Z,24.57
2023-05-03T13:12:32.407Z,24.47
2023-05-03T13:14:59.033Z,24.50
2023-05-03T13:17:26.145Z,24.52
2023-05-03T13:19:53.111Z,24.72
2023-05-03T13:22:19.652Z,24.74
2023-05-03T13:24:48.071Z,24.97
2023-05-03T13:27:16.057Z,24.93
2023-05-03T13:29:42.651Z,24.87
2023-05-03T13:32:09.728Z,24.90
2023-05-03T13:34:36.662Z,24.69
2023-05-03T13:37:06.638Z,24.66
2023-05-03T13:39:33.375Z,24.52
2023-05-03T13:42:00.281Z,24.94
2023-05-03T13:44:26.942Z,25.04
2023-05-03T13:46:54.016Z,25.08
2023-05-03T13:49:21.365Z,24.96
2023-05-03T13:51:48.101Z,25.16
2023-05-03T13:54:14.688Z,25.15
2023-05-03T13:56:42.713Z,25.03
2023-05-03T13:59:12.234Z,25.04
2023-05-03T14:01:39.321Z,25.10
2023-05-03T14:04:06.368Z,25.25
2023-05-03T14:06:33.816Z,25.02
2023-05-03T14:09:01.676Z,25.05
2023-05-03T14:11:30.267Z,25.22
2023-05-03T14:13:58.147Z,25.54
2023-05-03T14:16:40.159Z,25.36
2023-05-03T14:19:09.921Z,25.27
2023-05-03T14:21:36.774Z,25.35
2023-05-03T14:24:03.545Z,25.15
2023-05-03T14:26:30.181Z,25.12
2023-05-03T14:28:56.972Z,25.36
2023-05-03T14:31:23.671Z,25.23
2023-05-03T14:33:50.244Z,25.19
2023-05-03T14:36:16.796Z,25.05
2023-05-03T14:38:43.615Z,25.09
2023-05-03T14:41:10.248Z,25.06
2023-05-03T14:43:37.384Z,24.99
2023-05-03T14:46:04.263Z,25.29
2023-05-03T14:48:30.836Z,25.33
2023-05-03T14:50:57.614Z,25.32
2023-05-03T14:53:24.251Z,25.27
2023-05-03T14:55:51.211Z,25.38
2023-05-03T14:58:18.521Z,25.32
2023-05-03T15:00:45.250Z,25.35
2023-05-03T15:03:12.792Z,25.45
2023-05-03T15:05:47.500Z,25.55
2023-05-03T15:08:16.700Z,24.70
2023-05-03T15:10:47.605Z,24.78
2023-05-03T15:13:16.118Z,25.32
2023-05-03T15:15:43.871Z,25.36
2023-05-03T15:18:11.284Z,25.16
2023-05-03T15:20:38.311Z,25.11
2023-05-03T15:23:05.185Z,25.00
2023-05-03T15:25:32.356Z,24.99
2023-05-03T15:28:01.895Z,25.07
2023-05-03T15:30:31.108Z,24.98
2023-05-03T15:32:57.842Z,24.96
2023-05-03T15:35:24.549Z,24.84
2023-05-03T15:37:51.347Z,25.27
2023-05-03T15:40:18.616Z,25.28
2023-05-03T15:42:45.362Z,25.17
2023-05-03T15:45:13.188Z,25.35
2023-05-03T15:47:39.851Z,25.12
2023-05-03T15:50:07.848Z,24.99
2023-05-03T15:52:34.926Z,24.94
2023-05-03T15:55:01.684Z,25.10
2023-05-03T15:57:29.637Z,25.35
2023-05-03T15:59:56.927Z,25.37
2023-05-03T16:02:23.684Z,25.55
2023-05-03T16:04:50.787Z,25.16
2023-05-03T16:07:17.891Z,24.95
2023-05-03T16:09:44.656Z,24.94
2023-05-03T16:12:11.331Z,24.98
2023-05-03T16:14:38.016Z,25.13
2023-05-03T16:17:04.538Z,25.06
2023-05-03T16:19:31.901Z,25.10
2023-05-03T16:21:58.618Z,25.08
2023-05-03T16:24:25.433Z,25.26
2023-05-03T16:26:52.573Z,25.46
2023-05-03T16:29:19.383Z,25.50
2023-05-03T16:31:46.915Z,25.72
2023-05-03T16:34:14.142Z,25.81
2023-05-03T16:36:42.977Z,25.74
2023-05-03T16:39:11.352Z,25.66
2023-05-03T16:41:38.403Z,25.79
2023-05-03T16:44:07.469Z,25.39
2023-05-03T16:46:44.071Z,25.61
2023-05-03T16:49:11.292Z,26.03
2023-05-03T16:51:37.965Z,25.86
2023-05-03T16:54:04.955Z,25.98
2023-05-03T16:56:32.095Z,25.76
2023-05-03T16:59:02.937Z,25.36
2023-05-03T17:01:29.529Z,25.19
2023-05-03T17:03:56.074Z,25.08
2023-05-03T17:06:23.151Z,24.99
2023-05-03T17:08:49.806Z,25.26
2023-05-03T17:11:16.576Z,25.18
2023-05-03T17:13:43.417Z,25.04
2023-05-03T17:16:15.069Z,25.06
2023-05-03T17:18:42.470Z,25.02
2023-05-03T17:21:09.913Z,24.64
2023-05-03T17:23:38.259Z,24.51
2023-05-03T17:26:08.285Z,24.49
2023-05-03T17:28:35.620Z,24.66
2023-05-03T17:31:12.514Z,24.69
2023-05-03T17:33:39.104Z,24.48
2023-05-03T17:36:05.993Z,24.38
2023-05-03T17:38:33.815Z,24.30
2023-05-03T17:41:07.581Z,24.52
2023-05-03T17:43:35.532Z,24.53
2023-05-03T17:46:10.884Z,24.59
2023-05-03T17:48:39.674Z,24.66
2023-05-03T17:51:07.672Z,24.43
2023-05-03T17:53:34.460Z,24.43
2023-05-03T17:56:01.009Z,24.27
2023-05-03T17:58:27.694Z,24.02
2023-05-03T18:00:54.217Z,23.80
2023-05-03T18:03:20.880Z,24.06
2023-05-03T18:05:47.979Z,24.29
2023-05-03T18:08:14.585Z,24.09
2023-05-03T18:10:42.986Z,24.13
2023-05-03T18:13:10.729Z,23.75
2023-05-03T18:15:41.854Z,23.70
2023-05-03T18:18:08.855Z,23.79
2023-05-03T18:20:35.688Z,24.04
2023-05-03T18:23:02.592Z,23.80
2023-05-03T18:25:29.265Z,23.51
2023-05-03T18:27:57.076Z,23.49
2023-05-03T18:30:26.112Z,23.06
2023-05-03T18:32:52.677Z,22.95
2023-05-03T18:35:19.275Z,23.30
2023-05-03T18:37:46.030Z,23.24
2023-05-03T18:40:12.732Z,23.13
2023-05-03T18:42:39.375Z,23.06
2023-05-03T18:45:06.948Z,23.02
2023-05-03T18:47:33.593Z,22.86
2023-05-03T18:50:00.127Z,23.12
2023-05-03T18:52:26.681Z,22.96
2023-05-03T18:54:54.064Z,22.94
2023-05-03T18:57:20.737Z,23.05
2023-05-03T18:59:59.586Z,22.84
2023-05-03T19:02:30.410Z,22.67
2023-05-03T19:04:57.393Z,22.77
2023-05-03T19:07:24.151Z,22.67
2023-05-03T19:09:55.009Z,22.43
2023-05-03T19:12:22.151Z,22.54
2023-05-03T19:14:48.841Z,22.30
2023-05-03T19:17:15.477Z,22.04
2023-05-03T19:19:41.973Z,22.26
2023-05-03T19:22:08.565Z,22.11
2023-05-03T19:24:35.249Z,22.23
2023-05-03T19:27:02.126Z,22.39
2023-05-03T19:29:29.599Z,22.36
2023-05-03T19:31:56.323Z,22.10
2023-05-03T19:34:22.851Z,21.96
2023-05-03T19:36:50.080Z,21.96
2023-05-03T19:39:16.579Z,21.83
2023-05-03T19:41:43.491Z,21.86
2023-05-03T19:44:10.305Z,22.10
2023-05-03T19:46:36.891Z,22.00
2023-05-03T19:49:03.950Z,22.00
2023-05-03T19:51:31.245Z,21.63
2023-05-03T19:53:57.764Z,21.43
2023-05-03T19:56:25.000Z,21.45
2023-05-03T19:58:51.652Z,21.50
2023-05-03T20:01:18.457Z,21.44
2023-05-03T20:03:45.453Z,21.41
2023-05-03T20:06:12.299Z,21.22
2023-05-03T20:08:39.053Z,21.31
2023-05-03T20:11:05.808Z,21.25
2023-05-03T20:13:33.586Z,21.16
2023-05-03T20:16:04.685Z,20.89
2023-05-03T20:18:31.603Z,20.64
2023-05-03T20:20:58.271Z,20.67
2023-05-03T20:23:25.072Z,20.74
2023-05-03T20:25:51.668Z,20.81
2023-05-03T20:28:18.591Z,21.11
2023-05-03T20:30:45.316Z,20.93
2023-05-03T20:33:12.331Z,21.10
2023-05-03T20:35:39.039Z,21.03
2023-05-03T20:38:05.756Z,21.26
2023-05-03T20:40:35.708Z,21.20
2023-05-03T20:43:02.564Z,20.81
2023-05-03T20:45:29.787Z,20.70
2023-05-03T20:47:56.504Z,20.76
2023-05-03T20:50:23.193Z,20.80
2023-05-03T20:52:50.113Z,20.59
2023-05-03T20:55:16.928Z,20.77
2023-05-03T20:57:43.822Z,20.95
2023-05-03T21:00:17.537Z,20.88
2023-05-03T21:02:44.900Z,20.78
2023-05-03T21:05:11.808Z,20.82
2023-05-03T21:07:38.700Z,20.90
2023-05-03T21:10:07.145Z,21.01
2023-05-03T21:12:34.740Z,20.98
2023-05-03T21:15:02.002Z,20.77
2023-05-03T21:17:28.809Z,20.70
2023-05-03T21:19:55.742Z,20.65
2023-05-03T21:22:22.779Z,20.94
2023-05-03T21:24:50.053Z,20.72
2023-05-03T21:27:16.792Z,20.63
2023-05-03T21:29:43.276Z,20.79
2023-05-03T21:32:09.957Z,20.89
2023-05-03T21:34:36.577Z,20.90
2023-05-03T21:37:03.646Z,20.74
2023-05-03T21:39:30.233Z,20.79
2023-05-03T21:41:56.961Z,21.00
2023-05-03T21:44:23.484Z,20.81
2023-05-03T21:46:50.083Z,20.94
2023-05-03T21:49:16.675Z,20.92
2023-05-03T21:51:43.348Z,20.95
2023-05-03T21:54:09.848Z,20.95
2023-05-03T21:56:36.504Z,20.89
2023-05-03T21:59:03.086Z,20.91
2023-05-03T22:01:29.802Z,21.01
2023-05-03T22:03:56.509Z,21.07
2023-05-03T22:06:23.271Z,21.00
2023-05-03T22:08:49.772Z,21.20
2023-05-03T22:11:16.362Z,21.10
2023-05-03T22:13:58.788Z,21.04
2023-05-03T22:16:29.660Z,21.00
2023-05-03T22:18:56.269Z,20.77
2023-05-03T22:21:22.852Z,20.74
2023-05-03T22:23:49.428Z,20.58
2023-05-03T22:26:16.345Z,20.58
2023-05-03T22:28:42.900Z,20.48
2023-05-03T22:31:09.587Z,20.58
2023-05-03T22:33:36.073Z,20.64
2023-05-03T22:36:02.686Z,20.64
2023-05-03T22:38:29.201Z,20.80
2023-05-03T22:40:55.790Z,20.76
2023-05-03T22:43:22.276Z,20.90
2023-05-03T22:45:48.883Z,20.80
2023-05-03T22:48:15.425Z,20.83
2023-05-03T22:50:42.020Z,20.71
2023-05-03T22:53:08.653Z,20.78
2023-05-03T22:55:35.296Z,20.64
2023-05-03T22:58:01.895Z,20.73
2023-05-03T23:00:28.451Z,20.74
2023-05-03T23:02:55.518Z,20.79
2023-05-03T23:05:22.234Z,20.80
2023-05-03T23:07:49.000Z,20.53
2023-05-03T23:10:15.693Z,20.48
2023-05-03T23:12:42.442Z,20.43
2023-05-03T23:15:10.316Z,20.07
2023-05-03T23:17:36.990Z,20.08
2023-05-03T23:20:05.431Z,20.01
2023-05-03T23:22:32.298Z,19.92
2023-05-03T23:24:59.108Z,20.11
2023-05-03T23:27:25.681Z,20.12
2023-05-03T23:29:52.891Z,20.34
2023-05-03T23:32:20.160Z,20.52
2023-05-03T23:34:47.185Z,20.44
2023-05-03T23:37:13.734Z,20.36
2023-05-03T23:39:44.338Z,20.36
2023-05-03T23:42:12.162Z,20.31
2023-05-03T23:44:53.797Z,20.45
2023-05-03T23:47:22.589Z,20.25
2023-05-03T23:49:49.578Z,20.32
2023-05-03T23:52:18.873Z,20.13
2023-05-03T23:54:45.724Z,20.29
2023-05-03T23:57:12.266Z,20.37
2023-05-03T23:59:38.800Z,20.09
